Boyes Springs, California
Current Conditions -  °F | °C
As of 8:55 AM on Saturday 22 Nov 2014 (Local Time) from KO69 Reporting Station
Broken Clouds Broken Clouds  
Wind Chill: 63°   Ceiling: 600
Heat Index: 63°   Visibility: 9mi
Dew Point: 63°   Wind: 17mph
Humidity: 100%   Direction: 270°W
Pressure: 30.07"   Gusts: 25mph
Location:  38.3176°N, 122.485°W
Report Text: KO69 221655Z AUTO 27015G22KT 9SM BKN006 17/17 A3007 RMK AO1 P0001
Loading
Personal Weather Stations






























Interactive Weather Map New forecast layout! Learn more

10-Day Weather Forecast

Advertisements
Track Severe Weather on mobile